createdAt,value
2022-08-28T00:01:25.215Z,99118.13
2022-08-28T00:03:51.840Z,99114.22
2022-08-28T00:06:18.526Z,99122.13
2022-08-28T00:08:45.098Z,99124.78
2022-08-28T00:11:11.748Z,99121.31
2022-08-28T00:13:38.441Z,99125.22
2022-08-28T00:16:05.642Z,99114.94
2022-08-28T00:18:34.240Z,99116.88
2022-08-28T00:21:01.418Z,99126.38
2022-08-28T00:23:40.293Z,99123.19
2022-08-28T00:26:10.329Z,99122.38
2022-08-28T00:28:37.126Z,99121.22
2022-08-28T00:31:03.911Z,99122.84
2022-08-28T00:33:34.479Z,99124.34
2022-08-28T00:36:02.205Z,99127.84
2022-08-28T00:38:29.663Z,99123.91
2022-08-28T00:41:00.687Z,99126.25
2022-08-28T00:43:36.911Z,99130.97
2022-08-28T00:46:06.048Z,99123.88
2022-08-28T00:48:34.021Z,99127.34
2022-08-28T00:51:02.207Z,99130.84
2022-08-28T00:53:32.798Z,99125.72
2022-08-28T00:56:02.643Z,99132.03
2022-08-28T00:58:31.237Z,99124.94
2022-08-28T01:00:57.939Z,99126.13
2022-08-28T01:03:25.114Z,99126.88
2022-08-28T01:05:55.055Z,99119.06
2022-08-28T01:08:21.756Z,99132.03
2022-08-28T01:10:53.945Z,99130.44
2022-08-28T01:13:20.921Z,99133.19
2022-08-28T01:15:48.342Z,99132.81
2022-08-28T01:18:16.131Z,99136.72
2022-08-28T01:20:49.033Z,99143.38
2022-08-28T01:23:25.200Z,99144.22
2022-08-28T01:25:53.137Z,99151.28
2022-08-28T01:28:20.048Z,99149.34
2022-08-28T01:30:48.289Z,99145.06
2022-08-28T01:33:15.026Z,99151.72
2022-08-28T01:35:44.735Z,99148.63
2022-08-28T01:38:11.720Z,99145.06
2022-08-28T01:40:41.659Z,99146.66
2022-08-28T01:43:12.535Z,99143.13
2022-08-28T01:45:40.108Z,99151.78
2022-08-28T01:48:07.402Z,99153.38
2022-08-28T01:50:35.512Z,99151.78
2022-08-28T01:53:02.746Z,99146.66
2022-08-28T01:55:29.483Z,99152.16
2022-08-28T01:57:56.299Z,99149.41
2022-08-28T02:00:25.089Z,99155.28
2022-08-28T02:02:51.652Z,99154.47
2022-08-28T02:05:18.369Z,99152.88
2022-08-28T02:07:44.944Z,99158.81
2022-08-28T02:10:11.536Z,99152.09
2022-08-28T02:12:38.235Z,99155.63
2022-08-28T02:15:06.060Z,99153.25
2022-08-28T02:17:34.046Z,99156.75
2022-08-28T02:20:00.612Z,99158.72
2022-08-28T02:22:27.401Z,99160.31
2022-08-28T02:24:54.005Z,99155.09
2022-08-28T02:27:20.716Z,99160.16
2022-08-28T02:29:47.325Z,99163.72
2022-08-28T02:32:13.956Z,99161.03
2022-08-28T02:34:41.910Z,99162.97
2022-08-28T02:37:08.469Z,99161.03
2022-08-28T02:39:35.528Z,99166.47
2022-08-28T02:42:02.208Z,99162.13
2022-08-28T02:44:28.802Z,99164.88
2022-08-28T02:46:55.487Z,99164.88
2022-08-28T02:49:22.959Z,99167.63
2022-08-28T02:51:51.032Z,99165.63
2022-08-28T02:54:18.458Z,99168.72
2022-08-28T02:56:45.188Z,99167.13
2022-08-28T02:59:11.878Z,99171.06
2022-08-28T03:01:38.628Z,99173.00
2022-08-28T03:04:05.823Z,99170.25
2022-08-28T03:06:33.032Z,99171.47
2022-08-28T03:09:01.109Z,99182.00
2022-08-28T03:11:28.189Z,99177.28
2022-08-28T03:13:54.755Z,99178.81
2022-08-28T03:16:21.338Z,99177.22
2022-08-28T03:18:47.971Z,99179.53
2022-08-28T03:21:14.610Z,99182.72
2022-08-28T03:23:41.182Z,99172.09
2022-08-28T03:26:11.528Z,99163.47
2022-08-28T03:28:41.048Z,99168.53
2022-08-28T03:31:08.543Z,99160.22
2022-08-28T03:33:35.324Z,99166.47
2022-08-28T03:36:04.607Z,99168.00
2022-08-28T03:38:31.628Z,99179.31
2022-08-28T03:40:58.216Z,99172.22
2022-08-28T03:43:26.202Z,99174.97
2022-08-28T03:45:56.367Z,99180.81
2022-08-28T03:48:23.096Z,99173.72
2022-08-28T03:50:50.271Z,99178.34
2022-08-28T03:53:18.636Z,99183.84
2022-08-28T03:55:45.226Z,99185.41
2022-08-28T03:58:12.069Z,99183.38
2022-08-28T04:00:47.318Z,99185.28
2022-08-28T04:03:14.241Z,99187.94
2022-08-28T04:05:41.891Z,99189.81
2022-08-28T04:08:08.764Z,99185.06
2022-08-28T04:10:35.656Z,99184.97
2022-08-28T04:13:02.921Z,99187.25
2022-08-28T04:15:29.761Z,99188.75
2022-08-28T04:17:57.698Z,99186.66
2022-08-28T04:20:24.386Z,99187.28
2022-08-28T04:22:55.064Z,99188.84
2022-08-28T04:25:22.473Z,99189.50
2022-08-28T04:27:50.058Z,99189.44
2022-08-28T04:30:17.462Z,99195.56
2022-08-28T04:32:44.160Z,99197.53
2022-08-28T04:35:13.345Z,99196.59
2022-08-28T04:37:40.718Z,99199.25
2022-08-28T04:40:09.082Z,99200.34
2022-08-28T04:42:35.860Z,99204.22
2022-08-28T04:45:02.701Z,99210.50
2022-08-28T04:47:29.305Z,99201.84
2022-08-28T04:49:55.931Z,99203.44
2022-08-28T04:52:23.902Z,99203.44
2022-08-28T04:54:50.444Z,99203.44
2022-08-28T04:57:17.053Z,99208.56
2022-08-28T04:59:43.720Z,99212.81
2022-08-28T05:02:10.477Z,99211.31
2022-08-28T05:04:37.244Z,99211.41
2022-08-28T05:07:04.062Z,99211.81
2022-08-28T05:09:32.114Z,99220.03
2022-08-28T05:12:01.917Z,99214.63
2022-08-28T05:14:28.549Z,99215.78
2022-08-28T05:16:55.143Z,99225.19
2022-08-28T05:19:22.036Z,99224.72
2022-08-28T05:21:48.783Z,99225.53
2022-08-28T05:24:15.553Z,99230.22
2022-08-28T05:26:43.556Z,99236.16
2022-08-28T05:29:10.642Z,99242.28
2022-08-28T05:31:38.024Z,99235.28
2022-08-28T05:34:05.149Z,99237.75
2022-08-28T05:36:35.961Z,99236.25
2022-08-28T05:39:07.011Z,99239.34
2022-08-28T05:41:34.019Z,99236.31
2022-08-28T05:44:05.561Z,99234.34
2022-08-28T05:46:32.819Z,99237.91
2022-08-28T05:48:59.419Z,99247.72
2022-08-28T05:51:27.552Z,99247.22
2022-08-28T05:53:54.880Z,99249.63
2022-08-28T05:56:24.049Z,99251.56
2022-08-28T05:58:51.075Z,99250.66
2022-08-28T06:01:21.443Z,99254.91
2022-08-28T06:03:53.063Z,99261.66
2022-08-28T06:06:19.850Z,99258.63
2022-08-28T06:08:56.339Z,99257.63
2022-08-28T06:11:27.137Z,99255.50
2022-08-28T06:13:58.782Z,99258.84
2022-08-28T06:16:26.842Z,99260.84
2022-08-28T06:18:53.624Z,99263.31
2022-08-28T06:21:20.305Z,99263.03
2022-08-28T06:23:46.883Z,99269.25
2022-08-28T06:26:13.548Z,99273.28
2022-08-28T06:28:40.143Z,99270.59
2022-08-28T06:31:23.541Z,99266.34
2022-08-28T06:33:52.315Z,99267.94
2022-08-28T06:36:18.900Z,99264.19
2022-08-28T06:38:45.462Z,99269.19
2022-08-28T06:41:12.449Z,99274.44
2022-08-28T06:43:39.190Z,99273.75
2022-08-28T06:46:06.260Z,99270.56
2022-08-28T06:48:33.132Z,99275.88
2022-08-28T06:51:01.152Z,99267.84
2022-08-28T06:53:29.987Z,99276.31
2022-08-28T06:55:59.031Z,99280.00
2022-08-28T06:58:26.132Z,99282.25
2022-08-28T07:01:02.989Z,99278.44
2022-08-28T07:03:29.813Z,99276.91
2022-08-28T07:05:57.176Z,99285.69
2022-08-28T07:08:25.488Z,99284.97
2022-08-28T07:10:52.457Z,99293.38
2022-08-28T07:13:19.186Z,99288.44
2022-08-28T07:15:45.877Z,99296.41
2022-08-28T07:18:12.661Z,99289.50
2022-08-28T07:20:39.444Z,99300.41
2022-08-28T07:23:06.073Z,99305.56
2022-08-28T07:25:34.177Z,99298.78
2022-08-28T07:28:00.891Z,99303.88
2022-08-28T07:30:27.496Z,99308.16
2022-08-28T07:32:54.087Z,99302.44
2022-08-28T07:35:21.038Z,99298.25
2022-08-28T07:37:47.667Z,99302.28
2022-08-28T07:40:14.567Z,99307.53
2022-08-28T07:42:42.570Z,99312.16
2022-08-28T07:45:10.365Z,99303.28
2022-08-28T07:47:36.951Z,99316.41
2022-08-28T07:50:04.493Z,99303.06
2022-08-28T07:52:31.083Z,99310.06
2022-08-28T07:54:57.647Z,99316.25
2022-08-28T07:57:24.364Z,99308.97
2022-08-28T07:59:52.422Z,99316.28
2022-08-28T08:02:19.060Z,99320.47
2022-08-28T08:04:45.640Z,99318.09
2022-08-28T08:07:12.224Z,99314.13
2022-08-28T08:09:40.386Z,99324.03
2022-08-28T08:12:10.406Z,99322.41
2022-08-28T08:14:37.956Z,99322.44
2022-08-28T08:17:07.306Z,99319.31
2022-08-28T08:19:34.408Z,99325.25
2022-08-28T08:22:01.113Z,99320.63
2022-08-28T08:24:28.600Z,99318.84
2022-08-28T08:27:00.067Z,99327.31
2022-08-28T08:29:29.094Z,99321.06
2022-08-28T08:32:00.416Z,99321.50
2022-08-28T08:34:28.664Z,99323.06
2022-08-28T08:36:55.357Z,99328.50
2022-08-28T08:39:22.082Z,99321.41
2022-08-28T08:41:51.555Z,99325.16
2022-08-28T08:44:28.475Z,99331.53
2022-08-28T08:47:13.263Z,99336.44
2022-08-28T08:49:47.514Z,99331.59
2022-08-28T08:52:42.908Z,99328.19
2022-08-28T08:55:25.073Z,99327.84
2022-08-28T08:57:56.818Z,99331.03
2022-08-28T09:00:24.574Z,99321.94
2022-08-28T09:02:58.840Z,99328.56
2022-08-28T09:05:44.907Z,99333.28
2022-08-28T09:08:18.792Z,99326.97
2022-08-28T09:10:52.729Z,99323.66
2022-08-28T09:13:25.945Z,99333.00
2022-08-28T09:15:52.685Z,99324.56
2022-08-28T09:18:25.855Z,99325.63
2022-08-28T09:20:55.737Z,99328.88
2022-08-28T09:23:23.510Z,99336.94
2022-08-28T09:25:54.934Z,99334.63
2022-08-28T09:28:26.073Z,99339.25
2022-08-28T09:30:57.154Z,99334.00
2022-08-28T09:33:33.562Z,99343.06
2022-08-28T09:36:22.958Z,99335.53
2022-08-28T09:39:04.806Z,99339.41
2022-08-28T09:41:32.354Z,99338.41
2022-08-28T09:43:58.989Z,99335.94
2022-08-28T09:46:30.273Z,99332.53
2022-08-28T09:49:09.157Z,99338.38
2022-08-28T09:51:37.439Z,99337.38
2022-08-28T09:54:11.650Z,99330.69
2022-08-28T09:56:41.394Z,99334.13
2022-08-28T09:59:10.116Z,99337.19
2022-08-28T10:01:47.287Z,99336.78
2022-08-28T10:04:27.978Z,99334.19
2022-08-28T10:07:01.212Z,99327.22
2022-08-28T10:09:32.386Z,99337.72
2022-08-28T10:12:06.590Z,99330.38
2022-08-28T10:14:46.001Z,99339.53
2022-08-28T10:17:25.203Z,99332.09
2022-08-28T10:20:02.214Z,99323.00
2022-08-28T10:22:38.938Z,99337.63
2022-08-28T10:25:18.641Z,99333.53
2022-08-28T10:27:57.712Z,99333.59
2022-08-28T10:30:25.267Z,99329.66
2022-08-28T10:33:08.930Z,99342.25
2022-08-28T10:35:44.052Z,99339.00
2022-08-28T10:38:16.005Z,99327.09
2022-08-28T10:40:53.789Z,99330.81
2022-08-28T10:43:29.074Z,99331.97
2022-08-28T10:46:00.991Z,99328.81
2022-08-28T10:48:31.928Z,99334.25
2022-08-28T10:51:02.762Z,99336.66
2022-08-28T10:53:35.429Z,99328.19
2022-08-28T10:56:06.564Z,99323.88
2022-08-28T10:58:37.001Z,99316.91
2022-08-28T11:01:08.358Z,99333.19
2022-08-28T11:03:41.655Z,99325.63
2022-08-28T11:06:17.744Z,99325.00
2022-08-28T11:08:53.044Z,99324.63
2022-08-28T11:11:42.221Z,99318.97
2022-08-28T11:14:09.294Z,99321.09
2022-08-28T11:16:40.363Z,99322.22
2022-08-28T11:19:33.560Z,99328.75
2022-08-28T11:22:07.791Z,99318.31
2022-08-28T11:24:50.133Z,99318.59
2022-08-28T11:27:23.646Z,99327.03
2022-08-28T11:30:29.084Z,99327.88
2022-08-28T11:33:02.367Z,99323.75
2022-08-28T11:35:51.896Z,99322.91
2022-08-28T11:38:54.858Z,99328.50
2022-08-28T11:41:25.293Z,99319.16
2022-08-28T11:44:18.471Z,99320.72
2022-08-28T11:46:46.932Z,99320.06
2022-08-28T11:49:39.333Z,99322.16
2022-08-28T11:52:16.759Z,99329.41
2022-08-28T11:54:51.332Z,99317.84
2022-08-28T11:57:24.683Z,99325.69
2022-08-28T12:00:07.084Z,99315.31
2022-08-28T12:02:49.343Z,99316.22
2022-08-28T12:05:49.188Z,99323.41
2022-08-28T12:08:53.057Z,99313.63
2022-08-28T12:11:51.231Z,99315.88
2022-08-28T12:15:03.738Z,99325.09
2022-08-28T12:17:49.680Z,99315.88
2022-08-28T12:20:22.533Z,99313.63
2022-08-28T12:22:52.090Z,99309.97
2022-08-28T12:25:30.935Z,99302.91
2022-08-28T12:28:03.101Z,99303.31
2022-08-28T12:30:33.433Z,99310.53
2022-08-28T12:33:11.537Z,99300.72
2022-08-28T12:35:38.467Z,99317.25
2022-08-28T12:38:06.833Z,99304.06
2022-08-28T12:40:49.927Z,99311.47
2022-08-28T12:43:32.119Z,99305.94
2022-08-28T12:46:02.563Z,99301.03
2022-08-28T12:48:33.214Z,99302.09
2022-08-28T12:51:03.944Z,99296.50
2022-08-28T12:53:39.355Z,99304.91
2022-08-28T12:56:08.440Z,99290.13
2022-08-28T12:58:37.601Z,99303.72
2022-08-28T13:01:07.664Z,99301.78
2022-08-28T13:03:42.470Z,99302.38
2022-08-28T13:06:09.355Z,99303.16
2022-08-28T13:08:37.534Z,99299.13
2022-08-28T13:11:04.609Z,99304.91
2022-08-28T13:13:37.015Z,99300.50
2022-08-28T13:16:05.779Z,99296.59
2022-08-28T13:18:46.408Z,99303.00
2022-08-28T13:21:34.081Z,99294.50
2022-08-28T13:24:26.847Z,99297.56
2022-08-28T13:27:04.220Z,99296.44
2022-08-28T13:29:31.150Z,99292.50
2022-08-28T13:31:59.545Z,99302.50
2022-08-28T13:34:29.274Z,99284.44
2022-08-28T13:36:58.746Z,99284.59
2022-08-28T13:39:27.595Z,99280.88
2022-08-28T13:41:56.394Z,99271.88
2022-08-28T13:44:33.631Z,99271.00
2022-08-28T13:47:02.114Z,99267.19
2022-08-28T13:49:30.145Z,99266.66
2022-08-28T13:51:58.748Z,99271.59
2022-08-28T13:54:25.504Z,99272.03
2022-08-28T13:56:54.458Z,99281.59
2022-08-28T13:59:21.300Z,99285.16
2022-08-28T14:01:48.097Z,99277.41
2022-08-28T14:04:15.011Z,99280.22
2022-08-28T14:06:43.599Z,99280.56
2022-08-28T14:09:10.357Z,99276.44
2022-08-28T14:11:36.960Z,99269.03
2022-08-28T14:14:03.638Z,99279.78
2022-08-28T14:16:30.316Z,99278.22
2022-08-28T14:18:56.945Z,99276.97
2022-08-28T14:21:23.682Z,99274.31
2022-08-28T14:23:51.807Z,99267.25
2022-08-28T14:26:19.065Z,99269.72
2022-08-28T14:28:45.661Z,99269.53
2022-08-28T14:31:14.614Z,99269.91
2022-08-28T14:33:41.799Z,99268.22
2022-08-28T14:36:14.948Z,99267.69
2022-08-28T14:38:41.510Z,99273.75
2022-08-28T14:41:09.564Z,99262.50
2022-08-28T14:43:36.266Z,99265.44
2022-08-28T14:46:03.160Z,99262.91
2022-08-28T14:48:29.776Z,99262.16
2022-08-28T14:50:56.460Z,99269.88
2022-08-28T14:53:23.062Z,99264.22
2022-08-28T14:55:49.969Z,99271.50
2022-08-28T14:58:19.222Z,99261.47
2022-08-28T15:00:49.594Z,99270.84
2022-08-28T15:03:16.898Z,99270.84
2022-08-28T15:05:43.763Z,99274.00
2022-08-28T15:08:13.230Z,99269.81
2022-08-28T15:10:41.507Z,99270.75
2022-08-28T15:13:09.763Z,99278.09
2022-08-28T15:15:38.652Z,99272.78
2022-08-28T15:18:06.059Z,99272.84
2022-08-28T15:20:37.996Z,99269.66
2022-08-28T15:23:04.713Z,99285.91
2022-08-28T15:25:31.319Z,99272.50
2022-08-28T15:27:57.917Z,99278.22
2022-08-28T15:30:24.606Z,99271.09
2022-08-28T15:32:52.579Z,99267.56
2022-08-28T15:35:19.150Z,99269.75
2022-08-28T15:37:45.750Z,99282.56
2022-08-28T15:40:12.386Z,99273.16
2022-08-28T15:42:39.001Z,99272.44
2022-08-28T15:45:06.458Z,99271.25
2022-08-28T15:47:33.024Z,99273.41
2022-08-28T15:50:00.978Z,99279.59
2022-08-28T15:52:27.591Z,99270.75
2022-08-28T15:54:54.286Z,99277.88
2022-08-28T15:57:21.031Z,99276.47
2022-08-28T15:59:50.076Z,99281.28
2022-08-28T16:02:18.417Z,99279.97
2022-08-28T16:04:45.040Z,99271.91
2022-08-28T16:07:13.137Z,99275.28
2022-08-28T16:09:39.727Z,99269.75
2022-08-28T16:12:06.626Z,99272.47
2022-08-28T16:14:33.335Z,99268.88
2022-08-28T16:16:59.978Z,99262.00
2022-08-28T16:19:32.826Z,99271.47
2022-08-28T16:21:59.525Z,99270.16
2022-08-28T16:24:27.730Z,99264.50
2022-08-28T16:26:54.305Z,99263.44
2022-08-28T16:29:21.058Z,99263.00
2022-08-28T16:31:48.647Z,99273.44
2022-08-28T16:34:15.468Z,99265.69
2022-08-28T16:36:46.231Z,99266.88
2022-08-28T16:39:12.780Z,99269.53
2022-08-28T16:41:40.744Z,99272.78
2022-08-28T16:44:07.420Z,99277.06
2022-08-28T16:46:34.224Z,99273.72
2022-08-28T16:49:00.906Z,99275.41
2022-08-28T16:51:27.493Z,99266.47
2022-08-28T16:53:54.766Z,99271.81
2022-08-28T16:56:22.458Z,99273.56
2022-08-28T16:58:53.279Z,99276.41
2022-08-28T17:01:20.785Z,99273.75
2022-08-28T17:03:48.051Z,99275.94
2022-08-28T17:06:18.233Z,99277.22
2022-08-28T17:08:45.078Z,99286.00
2022-08-28T17:11:12.155Z,99277.84
2022-08-28T17:13:39.146Z,99286.53
2022-08-28T17:16:07.761Z,99283.66
2022-08-28T17:18:34.812Z,99277.63
2022-08-28T17:21:01.520Z,99287.56
2022-08-28T17:23:28.151Z,99283.97
2022-08-28T17:25:54.756Z,99286.28
2022-08-28T17:28:21.343Z,99281.03
2022-08-28T17:30:48.047Z,99282.94
2022-08-28T17:33:16.025Z,99289.41
2022-08-28T17:35:42.585Z,99281.66
2022-08-28T17:38:09.405Z,99294.31
2022-08-28T17:40:36.009Z,99291.41
2022-08-28T17:43:02.828Z,99293.72
2022-08-28T17:45:29.678Z,99292.94
2022-08-28T17:47:56.386Z,99298.19
2022-08-28T17:50:24.347Z,99297.22
2022-08-28T17:52:51.685Z,99292.66
2022-08-28T17:55:18.908Z,99291.66
2022-08-28T17:57:45.471Z,99291.59
2022-08-28T18:00:15.742Z,99286.09
2022-08-28T18:02:42.806Z,99293.72
2022-08-28T18:05:12.213Z,99293.75
2022-08-28T18:07:40.409Z,99300.50
2022-08-28T18:10:08.402Z,99301.72
2022-08-28T18:12:35.255Z,99302.13
2022-08-28T18:15:01.884Z,99307.66
2022-08-28T18:17:28.485Z,99307.66
2022-08-28T18:19:55.069Z,99312.00
2022-08-28T18:22:23.626Z,99317.91
2022-08-28T18:24:53.837Z,99326.63
2022-08-28T18:27:20.847Z,99323.03
2022-08-28T18:29:47.660Z,99328.09
2022-08-28T18:32:14.221Z,99335.13
2022-08-28T18:34:41.005Z,99337.84
2022-08-28T18:37:07.606Z,99334.25
2022-08-28T18:39:34.190Z,99339.38
2022-08-28T18:42:02.193Z,99346.00
2022-08-28T18:44:28.827Z,99353.09
2022-08-28T18:46:55.493Z,99346.66
2022-08-28T18:49:22.267Z,99354.16
2022-08-28T18:51:48.951Z,99359.25
2022-08-28T18:54:21.082Z,99355.16
2022-08-28T18:56:50.451Z,99350.78
2022-08-28T18:59:18.666Z,99359.38
2022-08-28T19:01:45.336Z,99364.41
2022-08-28T19:04:12.109Z,99368.19
2022-08-28T19:06:40.499Z,99368.41
2022-08-28T19:09:07.215Z,99367.47
2022-08-28T19:11:34.145Z,99368.53
2022-08-28T19:14:03.658Z,99368.91
2022-08-28T19:16:32.173Z,99369.16
2022-08-28T19:18:58.959Z,99367.84
2022-08-28T19:21:28.719Z,99369.31
2022-08-28T19:23:56.375Z,99376.19
2022-08-28T19:26:23.572Z,99372.91
2022-08-28T19:28:50.257Z,99374.69
2022-08-28T19:31:17.083Z,99374.91
2022-08-28T19:33:45.145Z,99377.78
2022-08-28T19:36:12.000Z,99377.94
2022-08-28T19:38:38.773Z,99387.97
2022-08-28T19:41:06.151Z,99381.81
2022-08-28T19:43:43.086Z,99387.19
2022-08-28T19:46:18.310Z,99400.81
2022-08-28T19:48:48.699Z,99397.84
2022-08-28T19:51:17.588Z,99399.63
2022-08-28T19:53:51.274Z,99406.53
2022-08-28T19:56:21.515Z,99404.75
2022-08-28T19:58:48.201Z,99406.50
2022-08-28T20:01:14.974Z,99412.22
2022-08-28T20:03:41.726Z,99411.63
2022-08-28T20:06:09.659Z,99409.44
2022-08-28T20:08:36.265Z,99413.25
2022-08-28T20:11:02.832Z,99413.56
2022-08-28T20:13:29.642Z,99411.88
2022-08-28T20:15:56.383Z,99414.31
2022-08-28T20:18:23.261Z,99418.75
2022-08-28T20:20:50.835Z,99422.59
2022-08-28T20:23:18.823Z,99423.59
2022-08-28T20:25:46.729Z,99427.31
2022-08-28T20:28:13.806Z,99434.72
2022-08-28T20:30:40.755Z,99431.88
2022-08-28T20:33:07.423Z,99433.09
2022-08-28T20:35:34.070Z,99433.38
2022-08-28T20:38:00.670Z,99438.72
2022-08-28T20:40:28.894Z,99431.34
2022-08-28T20:42:55.700Z,99433.09
2022-08-28T20:45:22.620Z,99426.66
2022-08-28T20:47:49.248Z,99430.44
2022-08-28T20:50:15.879Z,99434.94
2022-08-28T20:52:42.477Z,99427.22
2022-08-28T20:55:10.609Z,99430.22
2022-08-28T20:57:39.224Z,99434.34
2022-08-28T21:00:07.152Z,99438.94
2022-08-28T21:02:33.804Z,99436.00
2022-08-28T21:05:01.168Z,99431.91
2022-08-28T21:07:28.159Z,99448.72
2022-08-28T21:10:05.284Z,99447.78
2022-08-28T21:12:34.931Z,99451.13
2022-08-28T21:15:03.632Z,99449.66
2022-08-28T21:17:30.895Z,99460.50
2022-08-28T21:20:00.020Z,99454.47
2022-08-28T21:22:26.678Z,99460.63
2022-08-28T21:24:53.241Z,99464.75
2022-08-28T21:27:19.908Z,99461.56
2022-08-28T21:29:47.688Z,99465.34
2022-08-28T21:32:15.743Z,99465.56
2022-08-28T21:34:42.377Z,99463.28
2022-08-28T21:37:08.973Z,99461.13
2022-08-28T21:39:35.679Z,99466.94
2022-08-28T21:42:02.360Z,99461.69
2022-08-28T21:44:29.063Z,99469.44
2022-08-28T21:46:55.664Z,99460.44
2022-08-28T21:49:23.651Z,99462.38
2022-08-28T21:51:50.827Z,99466.56
2022-08-28T21:54:17.675Z,99458.38
2022-08-28T21:56:44.254Z,99455.75
2022-08-28T21:59:10.856Z,99460.66
2022-08-28T22:01:37.563Z,99454.25
2022-08-28T22:04:04.896Z,99462.69
2022-08-28T22:06:33.287Z,99457.09
2022-08-28T22:08:59.980Z,99466.09
2022-08-28T22:11:26.583Z,99466.66
2022-08-28T22:13:53.182Z,99469.50
2022-08-28T22:16:19.965Z,99466.69
2022-08-28T22:18:47.022Z,99467.38
2022-08-28T22:21:15.359Z,99472.94
2022-08-28T22:23:45.468Z,99460.03
2022-08-28T22:26:15.082Z,99465.03
2022-08-28T22:28:41.725Z,99480.03
2022-08-28T22:31:08.542Z,99469.28
2022-08-28T22:33:35.200Z,99480.31
2022-08-28T22:36:02.550Z,99478.78
2022-08-28T22:41:21.724Z,99483.88
2022-08-28T22:43:51.817Z,99476.97
2022-08-28T22:46:19.343Z,99475.75
2022-08-28T22:48:46.045Z,99477.19
2022-08-28T22:51:15.008Z,99479.44
2022-08-28T22:53:42.863Z,99478.38
2022-08-28T22:56:10.456Z,99481.66
2022-08-28T22:58:39.256Z,99481.97
2022-08-28T23:01:09.076Z,99479.91
2022-08-28T23:03:36.404Z,99486.53
2022-08-28T23:06:03.410Z,99487.53
2022-08-28T23:08:33.909Z,99478.06
2022-08-28T23:11:00.847Z,99485.47
2022-08-28T23:13:28.094Z,99487.44
2022-08-28T23:15:56.198Z,99486.97
2022-08-28T23:18:23.005Z,99492.25
2022-08-28T23:20:50.603Z,99489.38
2022-08-28T23:23:18.330Z,99496.97
2022-08-28T23:25:44.931Z,99493.91
2022-08-28T23:28:11.666Z,99483.53
2022-08-28T23:30:38.507Z,99489.81
2022-08-28T23:33:08.442Z,99489.00
2022-08-28T23:35:36.013Z,99490.00
2022-08-28T23:38:03.641Z,99491.78
2022-08-28T23:40:30.264Z,99490.00
2022-08-28T23:42:57.073Z,99487.94
2022-08-28T23:45:23.876Z,99488.91
2022-08-28T23:47:50.920Z,99486.69
2022-08-28T23:50:21.236Z,99483.03
2022-08-28T23:52:47.917Z,99483.38
2022-08-28T23:55:18.951Z,99484.50
2022-08-28T23:57:45.968Z,99483.22
